sensor_id;sensor_type;location;lat;lon;timestamp;pressure;altitude;pressure_sealevel;temperature;humidity
58967;BME280;44744;51.894;5.080;2023-05-07T11:11:45;101830.39;;;19.16;77.33
58967;BME280;44744;51.894;5.080;2023-05-07T11:12:48;101832.02;;;19.16;76.58
58967;BME280;44744;51.894;5.080;2023-05-07T11:13:49;101830.05;;;19.15;75.68
58967;BME280;44744;51.894;5.080;2023-05-07T11:14:50;101827.77;;;19.15;74.12
58967;BME280;44744;51.894;5.080;2023-05-07T11:15:50;101827.60;;;19.15;73.01
58967;BME280;44744;51.894;5.080;2023-05-07T11:17:02;101834.00;;;19.15;73.16
58967;BME280;44744;51.894;5.080;2023-05-07T11:18:03;101833.84;;;19.17;73.40
58967;BME280;44744;51.894;5.080;2023-05-07T11:19:04;101836.44;;;19.21;73.69
58967;BME280;44744;51.894;5.080;2023-05-07T11:20:05;101833.66;;;19.25;74.12
58967;BME280;44744;51.894;5.080;2023-05-07T11:21:05;101833.30;;;19.29;74.21
58967;BME280;44744;51.894;5.080;2023-05-07T11:24:40;101835.41;;;19.41;72.25
58967;BME280;44744;51.894;5.080;2023-05-07T11:25:42;101830.14;;;19.44;72.14
58967;BME280;44744;51.894;5.080;2023-05-07T11:26:53;101831.67;;;19.48;71.08
58967;BME280;44744;51.894;5.080;2023-05-07T11:27:54;101831.09;;;19.51;70.41
58967;BME280;44744;51.894;5.080;2023-05-07T11:28:54;101831.63;;;19.51;70.97
58967;BME280;44744;51.894;5.080;2023-05-07T11:29:55;101835.96;;;19.53;71.29
58967;BME280;44744;51.894;5.080;2023-05-07T11:30:56;101835.55;;;19.56;71.44
58967;BME280;44744;51.894;5.080;2023-05-07T11:31:57;101831.71;;;19.59;71.06
58967;BME280;44744;51.894;5.080;2023-05-07T11:32:57;101827.48;;;19.61;71.27
58967;BME280;44744;51.894;5.080;2023-05-07T11:33:59;101828.16;;;19.64;71.01
58967;BME280;44744;51.894;5.080;2023-05-07T11:35:00;101830.52;;;19.68;70.95
58967;BME280;44744;51.894;5.080;2023-05-07T11:36:02;101833.96;;;19.72;71.13
58967;BME280;44744;51.894;5.080;2023-05-07T11:37:04;101831.33;;;19.76;70.83
58967;BME280;44744;51.894;5.080;2023-05-07T11:38:05;101830.67;;;19.80;71.02
58967;BME280;44744;51.894;5.080;2023-05-07T11:39:26;101833.58;;;19.84;70.57
58967;BME280;44744;51.894;5.080;2023-05-07T11:40:26;101828.52;;;19.87;70.41
58967;BME280;44744;51.894;5.080;2023-05-07T11:41:34;101829.02;;;19.90;70.49
58967;BME280;44744;51.894;5.080;2023-05-07T11:42:37;101830.30;;;19.94;68.58
58967;BME280;44744;51.894;5.080;2023-05-07T11:43:37;101829.50;;;19.95;68.67
58967;BME280;44744;51.894;5.080;2023-05-07T11:44:44;101831.10;;;19.95;69.13
58967;BME280;44744;51.894;5.080;2023-05-07T11:45:45;101830.52;;;19.98;69.24
58967;BME280;44744;51.894;5.080;2023-05-07T11:46:46;101834.20;;;20.01;69.50
58967;BME280;44744;51.894;5.080;2023-05-07T11:47:46;101831.05;;;20.05;68.87
58967;BME280;44744;51.894;5.080;2023-05-07T11:48:47;101833.96;;;20.06;68.84
58967;BME280;44744;51.894;5.080;2023-05-07T11:49:48;101830.56;;;20.09;67.08
58967;BME280;44744;51.894;5.080;2023-05-07T11:50:52;101828.91;;;20.09;67.21
58967;BME280;44744;51.894;5.080;2023-05-07T11:51:53;101834.45;;;20.07;67.63
58967;BME280;44744;51.894;5.080;2023-05-07T11:52:53;101832.02;;;20.08;65.77
58967;BME280;44744;51.894;5.080;2023-05-07T11:53:54;101831.29;;;20.09;66.39
58967;BME280;44744;51.894;5.080;2023-05-07T11:54:57;101831.30;;;20.11;66.92
58967;BME280;44744;51.894;5.080;2023-05-07T11:55:58;101834.19;;;20.13;67.07
58967;BME280;44744;51.894;5.080;2023-05-07T11:56:58;101836.52;;;20.15;66.49
58967;BME280;44744;51.894;5.080;2023-05-07T11:57:59;101836.34;;;20.17;66.66
58967;BME280;44744;51.894;5.080;2023-05-07T11:58:59;101836.59;;;20.19;65.37
58967;BME280;44744;51.894;5.080;2023-05-07T12:00:00;101836.48;;;20.18;64.40
58967;BME280;44744;51.894;5.080;2023-05-07T12:01:01;101836.73;;;20.17;64.23
58967;BME280;44744;51.894;5.080;2023-05-07T12:02:01;101840.29;;;20.18;64.93
58967;BME280;44744;51.894;5.080;2023-05-07T12:03:04;101838.39;;;20.19;65.13
58967;BME280;44744;51.894;5.080;2023-05-07T12:04:05;101837.20;;;20.20;64.76
58967;BME280;44744;51.894;5.080;2023-05-07T12:05:08;101838.59;;;20.23;65.04
58967;BME280;44744;51.894;5.080;2023-05-07T12:06:09;101837.86;;;20.25;65.09
58967;BME280;44744;51.894;5.080;2023-05-07T12:07:17;101837.01;;;20.27;64.83
58967;BME280;44744;51.894;5.080;2023-05-07T12:08:22;101834.75;;;20.28;64.71
58967;BME280;44744;51.894;5.080;2023-05-07T12:09:22;101837.89;;;20.29;65.00
58967;BME280;44744;51.894;5.080;2023-05-07T12:10:25;101839.30;;;20.30;64.53
58967;BME280;44744;51.894;5.080;2023-05-07T12:12:58;101837.26;;;20.33;64.75
58967;BME280;44744;51.894;5.080;2023-05-07T12:13:58;101837.38;;;20.34;64.78
58967;BME280;44744;51.894;5.080;2023-05-07T12:14:59;101838.48;;;20.35;64.52
58967;BME280;44744;51.894;5.080;2023-05-07T12:16:02;101839.13;;;20.37;64.46
58967;BME280;44744;51.894;5.080;2023-05-07T12:17:04;101839.58;;;20.37;64.46
58967;BME280;44744;51.894;5.080;2023-05-07T12:18:06;101840.59;;;20.38;64.40
58967;BME280;44744;51.894;5.080;2023-05-07T12:19:08;101840.65;;;20.40;64.46
58967;BME280;44744;51.894;5.080;2023-05-07T12:20:08;101839.14;;;20.41;64.09
58967;BME280;44744;51.894;5.080;2023-05-07T12:21:09;101838.08;;;20.38;63.86
58967;BME280;44744;51.894;5.080;2023-05-07T12:22:10;101837.26;;;20.37;63.83
58967;BME280;44744;51.894;5.080;2023-05-07T12:23:12;101838.64;;;20.38;64.13
58967;BME280;44744;51.894;5.080;2023-05-07T12:24:14;101837.90;;;20.38;63.71
58967;BME280;44744;51.894;5.080;2023-05-07T12:25:19;101836.17;;;20.40;63.77
58967;BME280;44744;51.894;5.080;2023-05-07T12:26:19;101836.89;;;20.40;63.70
58967;BME280;44744;51.894;5.080;2023-05-07T12:27:19;101838.75;;;20.41;63.38
58967;BME280;44744;51.894;5.080;2023-05-07T12:28:20;101841.07;;;20.41;63.09
58967;BME280;44744;51.894;5.080;2023-05-07T12:29:23;101835.36;;;20.41;63.35
58967;BME280;44744;51.894;5.080;2023-05-07T12:30:44;101837.15;;;20.41;63.29
58967;BME280;44744;51.894;5.080;2023-05-07T12:31:44;101835.36;;;20.41;63.24
58967;BME280;44744;51.894;5.080;2023-05-07T12:32:45;101836.56;;;20.41;63.17
58967;BME280;44744;51.894;5.080;2023-05-07T12:33:48;101840.52;;;20.42;62.30
58967;BME280;44744;51.894;5.080;2023-05-07T12:34:50;101839.83;;;20.41;62.55
58967;BME280;44744;51.894;5.080;2023-05-07T12:35:53;101843.02;;;20.41;62.23
58967;BME280;44744;51.894;5.080;2023-05-07T12:36:53;101840.27;;;20.42;62.78
58967;BME280;44744;51.894;5.080;2023-05-07T12:37:55;101838.91;;;20.43;62.45
58967;BME280;44744;51.894;5.080;2023-05-07T12:38:55;101836.55;;;20.46;62.27
58967;BME280;44744;51.894;5.080;2023-05-07T12:41:57;101841.80;;;20.45;61.46
58967;BME280;44744;51.894;5.080;2023-05-07T12:45:11;101842.81;;;20.39;61.57
58967;BME280;44744;51.894;5.080;2023-05-07T12:47:35;101847.82;;;20.36;61.80
58967;BME280;44744;51.894;5.080;2023-05-07T12:48:43;101846.40;;;20.35;61.81
58967;BME280;44744;51.894;5.080;2023-05-07T12:49:44;101846.41;;;20.37;61.50
58967;BME280;44744;51.894;5.080;2023-05-07T12:50:44;101847.98;;;20.38;61.34
58967;BME280;44744;51.894;5.080;2023-05-07T12:51:46;101849.33;;;20.39;61.50
58967;BME280;44744;51.894;5.080;2023-05-07T12:52:49;101847.27;;;20.40;61.11
58967;BME280;44744;51.894;5.080;2023-05-07T12:53:49;101847.23;;;20.40;61.16
58967;BME280;44744;51.894;5.080;2023-05-07T12:54:49;101854.23;;;20.41;61.07
58967;BME280;44744;51.894;5.080;2023-05-07T12:55:52;101851.95;;;20.42;61.12
58967;BME280;44744;51.894;5.080;2023-05-07T12:57:03;101855.40;;;20.44;61.34
58967;BME280;44744;51.894;5.080;2023-05-07T12:58:04;101861.17;;;20.46;61.37
58967;BME280;44744;51.894;5.080;2023-05-07T12:59:08;101861.88;;;20.46;61.58
58967;BME280;44744;51.894;5.080;2023-05-07T13:00:12;101859.63;;;20.47;61.49
58967;BME280;44744;51.894;5.080;2023-05-07T13:01:13;101865.08;;;20.49;62.00
58967;BME280;44744;51.894;5.080;2023-05-07T13:02:14;101863.30;;;20.51;61.97
58967;BME280;44744;51.894;5.080;2023-05-07T13:03:29;101862.92;;;20.49;61.95
58967;BME280;44744;51.894;5.080;2023-05-07T13:04:30;101862.35;;;20.47;61.67
58967;BME280;44744;51.894;5.080;2023-05-07T13:05:31;101864.80;;;20.45;61.65
58967;BME280;44744;51.894;5.080;2023-05-07T13:06:32;101864.92;;;20.44;61.55
58967;BME280;44744;51.894;5.080;2023-05-07T13:07:33;101861.45;;;20.40;61.64
58967;BME280;44744;51.894;5.080;2023-05-07T13:08:37;101862.95;;;20.40;61.81
58967;BME280;44744;51.894;5.080;2023-05-07T13:09:38;101863.40;;;20.41;62.08
58967;BME280;44744;51.894;5.080;2023-05-07T13:10:38;101862.10;;;20.43;61.78
58967;BME280;44744;51.894;5.080;2023-05-07T13:11:38;101864.45;;;20.45;61.74
58967;BME280;44744;51.894;5.080;2023-05-07T13:12:38;101864.65;;;20.47;61.86
58967;BME280;44744;51.894;5.080;2023-05-07T13:13:40;101863.06;;;20.49;61.78
58967;BME280;44744;51.894;5.080;2023-05-07T13:14:54;101869.87;;;20.52;61.67
58967;BME280;44744;51.894;5.080;2023-05-07T13:15:54;101870.20;;;20.52;61.75
58967;BME280;44744;51.894;5.080;2023-05-07T13:16:55;101870.91;;;20.52;61.86
58967;BME280;44744;51.894;5.080;2023-05-07T13:17:55;101869.86;;;20.52;61.56
58967;BME280;44744;51.894;5.080;2023-05-07T13:19:08;101871.94;;;20.53;61.94
58967;BME280;44744;51.894;5.080;2023-05-07T13:20:13;101870.45;;;20.53;62.04
58967;BME280;44744;51.894;5.080;2023-05-07T13:21:13;101872.56;;;20.54;61.89
58967;BME280;44744;51.894;5.080;2023-05-07T13:22:13;101875.55;;;20.55;62.28
58967;BME280;44744;51.894;5.080;2023-05-07T13:23:14;101876.84;;;20.57;62.28
58967;BME280;44744;51.894;5.080;2023-05-07T13:24:14;101876.05;;;20.57;62.45
58967;BME280;44744;51.894;5.080;2023-05-07T13:25:14;101875.85;;;20.58;62.21
58967;BME280;44744;51.894;5.080;2023-05-07T13:26:15;101872.42;;;20.58;62.34
58967;BME280;44744;51.894;5.080;2023-05-07T13:27:15;101870.61;;;20.58;62.46
58967;BME280;44744;51.894;5.080;2023-05-07T13:28:16;101870.19;;;20.59;62.43
58967;BME280;44744;51.894;5.080;2023-05-07T13:29:17;101871.84;;;20.59;62.69
58967;BME280;44744;51.894;5.080;2023-05-07T13:30:17;101870.00;;;20.59;63.03
58967;BME280;44744;51.894;5.080;2023-05-07T13:31:17;101868.29;;;20.60;63.29
58967;BME280;44744;51.894;5.080;2023-05-07T13:32:18;101870.51;;;20.61;63.30
58967;BME280;44744;51.894;5.080;2023-05-07T13:33:18;101871.52;;;20.62;63.24
58967;BME280;44744;51.894;5.080;2023-05-07T13:34:19;101870.48;;;20.62;63.25
58967;BME280;44744;51.894;5.080;2023-05-07T13:35:19;101871.98;;;20.61;63.50
58967;BME280;44744;51.894;5.080;2023-05-07T13:36:19;101870.90;;;20.61;63.61
58967;BME280;44744;51.894;5.080;2023-05-07T13:37:20;101870.52;;;20.61;63.55
58967;BME280;44744;51.894;5.080;2023-05-07T13:38:20;101869.14;;;20.63;63.50
58967;BME280;44744;51.894;5.080;2023-05-07T13:39:20;101870.95;;;20.63;63.47
58967;BME280;44744;51.894;5.080;2023-05-07T13:40:22;101868.05;;;20.63;63.60
58967;BME280;44744;51.894;5.080;2023-05-07T13:41:22;101872.87;;;20.63;63.68
58967;BME280;44744;51.894;5.080;2023-05-07T13:42:22;101870.95;;;20.62;63.31
58967;BME280;44744;51.894;5.080;2023-05-07T13:43:23;101873.84;;;20.62;62.67
58967;BME280;44744;51.894;5.080;2023-05-07T13:44:23;101868.45;;;20.60;62.05
58967;BME280;44744;51.894;5.080;2023-05-07T13:45:23;101871.96;;;20.57;61.87
58967;BME280;44744;51.894;5.080;2023-05-07T13:46:24;101872.30;;;20.55;61.87
58967;BME280;44744;51.894;5.080;2023-05-07T13:47:24;101871.56;;;20.53;62.13
58967;BME280;44744;51.894;5.080;2023-05-07T13:48:25;101872.48;;;20.53;62.44
58967;BME280;44744;51.894;5.080;2023-05-07T13:49:25;101873.00;;;20.53;62.23
58967;BME280;44744;51.894;5.080;2023-05-07T13:50:25;101872.13;;;20.53;62.21
58967;BME280;44744;51.894;5.080;2023-05-07T13:51:25;101872.90;;;20.52;62.38
58967;BME280;44744;51.894;5.080;2023-05-07T13:52:26;101872.48;;;20.53;62.13
58967;BME280;44744;51.894;5.080;2023-05-07T13:53:26;101873.10;;;20.52;62.06
58967;BME280;44744;51.894;5.080;2023-05-07T13:54:26;101872.34;;;20.50;62.29
58967;BME280;44744;51.894;5.080;2023-05-07T13:55:29;101871.23;;;20.51;62.43
58967;BME280;44744;51.894;5.080;2023-05-07T13:56:30;101871.25;;;20.53;62.46
58967;BME280;44744;51.894;5.080;2023-05-07T13:57:30;101875.62;;;20.54;62.48
58967;BME280;44744;51.894;5.080;2023-05-07T13:58:30;101871.62;;;20.57;62.04
58967;BME280;44744;51.894;5.080;2023-05-07T13:59:31;101871.02;;;20.57;61.90
58967;BME280;44744;51.894;5.080;2023-05-07T14:00:32;101871.38;;;20.58;62.08
58967;BME280;44744;51.894;5.080;2023-05-07T14:01:35;101872.42;;;20.58;62.04
58967;BME280;44744;51.894;5.080;2023-05-07T14:02:44;101874.83;;;20.59;62.17
58967;BME280;44744;51.894;5.080;2023-05-07T14:03:59;101873.85;;;20.60;62.19
58967;BME280;44744;51.894;5.080;2023-05-07T14:05:11;101876.22;;;20.60;62.37
58967;BME280;44744;51.894;5.080;2023-05-07T14:06:19;101877.15;;;20.61;62.75
58967;BME280;44744;51.894;5.080;2023-05-07T14:07:28;101875.89;;;20.64;63.12
58967;BME280;44744;51.894;5.080;2023-05-07T14:08:28;101875.20;;;20.66;62.98
58967;BME280;44744;51.894;5.080;2023-05-07T14:09:28;101875.13;;;20.67;63.03
58967;BME280;44744;51.894;5.080;2023-05-07T14:10:29;101876.16;;;20.68;63.19
58967;BME280;44744;51.894;5.080;2023-05-07T14:11:29;101874.36;;;20.67;63.56
58967;BME280;44744;51.894;5.080;2023-05-07T14:12:31;101874.52;;;20.68;63.75
58967;BME280;44744;51.894;5.080;2023-05-07T14:13:31;101876.81;;;20.69;63.88
58967;BME280;44744;51.894;5.080;2023-05-07T14:14:31;101880.89;;;20.69;64.02
58967;BME280;44744;51.894;5.080;2023-05-07T14:15:32;101879.48;;;20.69;64.12
58967;BME280;44744;51.894;5.080;2023-05-07T14:16:32;101881.63;;;20.69;64.40
58967;BME280;44744;51.894;5.080;2023-05-07T14:17:32;101880.92;;;20.69;64.57
58967;BME280;44744;51.894;5.080;2023-05-07T14:18:33;101883.14;;;20.70;64.81
58967;BME280;44744;51.894;5.080;2023-05-07T14:19:33;101882.06;;;20.70;64.81
58967;BME280;44744;51.894;5.080;2023-05-07T14:20:33;101883.51;;;20.70;64.89
58967;BME280;44744;51.894;5.080;2023-05-07T14:21:33;101883.38;;;20.70;64.92
58967;BME280;44744;51.894;5.080;2023-05-07T14:22:34;101884.86;;;20.69;64.91
58967;BME280;44744;51.894;5.080;2023-05-07T14:23:34;101885.34;;;20.67;65.07
58967;BME280;44744;51.894;5.080;2023-05-07T14:24:36;101884.93;;;20.65;64.95
58967;BME280;44744;51.894;5.080;2023-05-07T14:25:36;101884.50;;;20.64;64.84
58967;BME280;44744;51.894;5.080;2023-05-07T14:26:36;101884.27;;;20.63;64.78
58967;BME280;44744;51.894;5.080;2023-05-07T14:27:37;101885.45;;;20.61;64.70
58967;BME280;44744;51.894;5.080;2023-05-07T14:28:37;101884.81;;;20.60;64.79
58967;BME280;44744;51.894;5.080;2023-05-07T14:29:37;101886.75;;;20.60;65.00
58967;BME280;44744;51.894;5.080;2023-05-07T14:30:37;101889.64;;;20.60;65.28
58967;BME280;44744;51.894;5.080;2023-05-07T14:31:38;101890.70;;;20.60;65.43
58967;BME280;44744;51.894;5.080;2023-05-07T14:32:38;101896.88;;;20.60;65.43
58967;BME280;44744;51.894;5.080;2023-05-07T14:33:38;101897.79;;;20.60;65.58
58967;BME280;44744;51.894;5.080;2023-05-07T14:34:39;101899.55;;;20.58;65.57
58967;BME280;44744;51.894;5.080;2023-05-07T14:35:39;101903.89;;;20.57;65.69
58967;BME280;44744;51.894;5.080;2023-05-07T14:36:40;101903.81;;;20.56;65.61
58967;BME280;44744;51.894;5.080;2023-05-07T14:37:40;101905.58;;;20.55;65.74
58967;BME280;44744;51.894;5.080;2023-05-07T14:38:40;101905.64;;;20.54;65.64
58967;BME280;44744;51.894;5.080;2023-05-07T14:39:41;101903.88;;;20.53;65.62
58967;BME280;44744;51.894;5.080;2023-05-07T14:40:41;101907.55;;;20.52;65.40
58967;BME280;44744;51.894;5.080;2023-05-07T14:41:41;101909.18;;;20.52;65.01
58967;BME280;44744;51.894;5.080;2023-05-07T14:42:41;101904.75;;;20.51;64.83
58967;BME280;44744;51.894;5.080;2023-05-07T14:43:42;101904.39;;;20.49;64.92
58967;BME280;44744;51.894;5.080;2023-05-07T14:44:42;101905.27;;;20.47;64.93
58967;BME280;44744;51.894;5.080;2023-05-07T14:45:42;101910.30;;;20.47;64.90
58967;BME280;44744;51.894;5.080;2023-05-07T14:46:42;101905.82;;;20.44;64.83
58967;BME280;44744;51.894;5.080;2023-05-07T14:47:43;101906.59;;;20.42;64.61
58967;BME280;44744;51.894;5.080;2023-05-07T14:48:44;101906.24;;;20.37;64.34
58967;BME280;44744;51.894;5.080;2023-05-07T14:50:17;101902.91;;;20.34;64.56
58967;BME280;44744;51.894;5.080;2023-05-07T14:51:11;101902.68;;;20.30;64.36
58967;BME280;44744;51.894;5.080;2023-05-07T14:52:11;101903.80;;;20.27;64.44
58967;BME280;44744;51.894;5.080;2023-05-07T14:53:12;101904.48;;;20.25;64.24
58967;BME280;44744;51.894;5.080;2023-05-07T14:54:13;101903.92;;;20.21;64.37
58967;BME280;44744;51.894;5.080;2023-05-07T14:55:13;101902.30;;;20.17;64.13
58967;BME280;44744;51.894;5.080;2023-05-07T14:56:14;101902.55;;;20.11;64.14
58967;BME280;44744;51.894;5.080;2023-05-07T14:57:14;101901.17;;;20.04;64.12
58967;BME280;44744;51.894;5.080;2023-05-07T14:58:15;101905.83;;;19.97;64.40
58967;BME280;44744;51.894;5.080;2023-05-07T14:59:15;101909.73;;;19.93;64.69
58967;BME280;44744;51.894;5.080;2023-05-07T15:00:15;101910.64;;;19.88;64.89
58967;BME280;44744;51.894;5.080;2023-05-07T15:01:16;101911.55;;;19.83;65.02
58967;BME280;44744;51.894;5.080;2023-05-07T15:02:16;101908.73;;;19.77;65.08
58967;BME280;44744;51.894;5.080;2023-05-07T15:03:16;101914.07;;;19.73;65.52
58967;BME280;44744;51.894;5.080;2023-05-07T15:04:17;101917.66;;;19.71;65.54
58967;BME280;44744;51.894;5.080;2023-05-07T15:05:17;101915.16;;;19.66;65.87
58967;BME280;44744;51.894;5.080;2023-05-07T15:06:17;101920.02;;;19.61;65.83
58967;BME280;44744;51.894;5.080;2023-05-07T15:07:17;101920.17;;;19.57;66.19
58967;BME280;44744;51.894;5.080;2023-05-07T15:08:18;101922.05;;;19.53;66.18
58967;BME280;44744;51.894;5.080;2023-05-07T15:09:18;101922.83;;;19.50;66.36
58967;BME280;44744;51.894;5.080;2023-05-07T15:10:18;101920.48;;;19.46;66.30
58967;BME280;44744;51.894;5.080;2023-05-07T15:11:19;101925.42;;;19.42;66.53
58967;BME280;44744;51.894;5.080;2023-05-07T15:12:19;101925.67;;;19.38;66.62
58967;BME280;44744;51.894;5.080;2023-05-07T15:13:19;101927.63;;;19.36;66.99
58967;BME280;44744;51.894;5.080;2023-05-07T15:14:21;101929.06;;;19.34;67.17
58967;BME280;44744;51.894;5.080;2023-05-07T15:15:21;101930.06;;;19.33;67.41
58967;BME280;44744;51.894;5.080;2023-05-07T15:16:21;101929.80;;;19.31;68.13
58967;BME280;44744;51.894;5.080;2023-05-07T15:17:22;101932.52;;;19.28;68.24
58967;BME280;44744;51.894;5.080;2023-05-07T15:18:23;101935.20;;;19.24;68.56
58967;BME280;44744;51.894;5.080;2023-05-07T15:19:23;101936.33;;;19.21;68.66
58967;BME280;44744;51.894;5.080;2023-05-07T15:20:23;101936.11;;;19.16;68.78
58967;BME280;44744;51.894;5.080;2023-05-07T15:21:24;101935.48;;;19.13;68.95
58967;BME280;44744;51.894;5.080;2023-05-07T15:22:24;101936.55;;;19.10;68.94
58967;BME280;44744;51.894;5.080;2023-05-07T15:23:24;101936.42;;;19.09;69.24
58967;BME280;44744;51.894;5.080;2023-05-07T15:24:25;101933.65;;;19.08;69.10
58967;BME280;44744;51.894;5.080;2023-05-07T15:25:25;101935.03;;;19.06;69.19
58967;BME280;44744;51.894;5.080;2023-05-07T15:26:26;101938.54;;;19.05;69.17
58967;BME280;44744;51.894;5.080;2023-05-07T15:27:26;101936.98;;;19.04;69.32
58967;BME280;44744;51.894;5.080;2023-05-07T15:28:27;101937.95;;;19.03;69.35
58967;BME280;44744;51.894;5.080;2023-05-07T15:29:27;101939.63;;;19.03;69.48
58967;BME280;44744;51.894;5.080;2023-05-07T15:30:28;101940.77;;;19.02;69.47
58967;BME280;44744;51.894;5.080;2023-05-07T15:31:28;101939.95;;;19.01;69.33
58967;BME280;44744;51.894;5.080;2023-05-07T15:32:28;101938.73;;;19.00;69.69
58967;BME280;44744;51.894;5.080;2023-05-07T15:33:28;101938.59;;;19.00;69.84
58967;BME280;44744;51.894;5.080;2023-05-07T15:34:29;101938.17;;;18.98;69.74
58967;BME280;44744;51.894;5.080;2023-05-07T15:35:29;101937.07;;;18.96;69.83
58967;BME280;44744;51.894;5.080;2023-05-07T15:36:29;101936.08;;;18.95;69.78
58967;BME280;44744;51.894;5.080;2023-05-07T15:37:33;101933.80;;;18.94;69.76
58967;BME280;44744;51.894;5.080;2023-05-07T15:38:34;101934.70;;;18.94;69.84
58967;BME280;44744;51.894;5.080;2023-05-07T15:39:35;101936.96;;;18.95;69.59
58967;BME280;44744;51.894;5.080;2023-05-07T15:40:35;101934.41;;;18.96;69.78
58967;BME280;44744;51.894;5.080;2023-05-07T15:41:35;101933.14;;;18.96;69.80
58967;BME280;44744;51.894;5.080;2023-05-07T15:42:35;101936.59;;;18.95;69.79
58967;BME280;44744;51.894;5.080;2023-05-07T15:43:45;101933.47;;;18.96;69.95
58967;BME280;44744;51.894;5.080;2023-05-07T15:44:46;101934.52;;;18.96;69.89
58967;BME280;44744;51.894;5.080;2023-05-07T15:45:46;101930.15;;;18.95;70.04
58967;BME280;44744;51.894;5.080;2023-05-07T15:48:00;101934.39;;;18.96;70.34
58967;BME280;44744;51.894;5.080;2023-05-07T15:48:30;101934.63;;;18.95;70.71
58967;BME280;44744;51.894;5.080;2023-05-07T15:49:30;101937.87;;;18.95;70.92
58967;BME280;44744;51.894;5.080;2023-05-07T15:50:30;101938.09;;;18.94;70.81
58967;BME280;44744;51.894;5.080;2023-05-07T15:51:30;101940.55;;;18.92;71.01
58967;BME280;44744;51.894;5.080;2023-05-07T15:52:31;101941.91;;;18.91;71.04
58967;BME280;44744;51.894;5.080;2023-05-07T15:53:31;101938.06;;;18.89;71.50
58967;BME280;44744;51.894;5.080;2023-05-07T15:54:31;101938.31;;;18.89;71.50
58967;BME280;44744;51.894;5.080;2023-05-07T15:55:32;101940.79;;;18.86;71.53
58967;BME280;44744;51.894;5.080;2023-05-07T15:56:32;101939.35;;;18.84;71.90
58967;BME280;44744;51.894;5.080;2023-05-07T15:57:32;101939.56;;;18.86;72.45
58967;BME280;44744;51.894;5.080;2023-05-07T15:58:33;101937.38;;;18.86;72.75
58967;BME280;44744;51.894;5.080;2023-05-07T15:59:34;101935.17;;;18.84;72.74
58967;BME280;44744;51.894;5.080;2023-05-07T16:00:34;101937.11;;;18.88;73.14
58967;BME280;44744;51.894;5.080;2023-05-07T16:01:34;101936.39;;;18.90;73.15
58967;BME280;44744;51.894;5.080;2023-05-07T16:02:35;101938.64;;;18.94;73.36
58967;BME280;44744;51.894;5.080;2023-05-07T16:03:35;101942.63;;;18.96;72.97
58967;BME280;44744;51.894;5.080;2023-05-07T16:04:36;101941.55;;;18.98;72.50
58967;BME280;44744;51.894;5.080;2023-05-07T16:05:37;101941.30;;;18.97;72.15
58967;BME280;44744;51.894;5.080;2023-05-07T16:06:40;101939.85;;;18.95;71.92
58967;BME280;44744;51.894;5.080;2023-05-07T16:07:49;101938.34;;;18.91;71.81
58967;BME280;44744;51.894;5.080;2023-05-07T16:10:00;101940.60;;;18.89;72.63
58967;BME280;44744;51.894;5.080;2023-05-07T16:11:00;101942.04;;;18.89;72.97
58967;BME280;44744;51.894;5.080;2023-05-07T16:12:01;101942.33;;;18.88;73.04
58967;BME280;44744;51.894;5.080;2023-05-07T16:13:02;101940.16;;;18.85;73.15
58967;BME280;44744;51.894;5.080;2023-05-07T16:14:03;101941.91;;;18.83;73.22
58967;BME280;44744;51.894;5.080;2023-05-07T16:15:03;101942.53;;;18.80;73.50
58967;BME280;44744;51.894;5.080;2023-05-07T16:16:04;101945.60;;;18.82;73.64
58967;BME280;44744;51.894;5.080;2023-05-07T16:18:22;101947.43;;;18.86;73.76
58967;BME280;44744;51.894;5.080;2023-05-07T16:19:22;101951.00;;;18.84;73.80
58967;BME280;44744;51.894;5.080;2023-05-07T16:20:26;101947.65;;;18.83;73.89
58967;BME280;44744;51.894;5.080;2023-05-07T16:21:27;101953.20;;;18.83;73.95
58967;BME280;44744;51.894;5.080;2023-05-07T16:22:27;101954.74;;;18.84;73.95
58967;BME280;44744;51.894;5.080;2023-05-07T16:23:27;101957.09;;;18.84;73.93
58967;BME280;44744;51.894;5.080;2023-05-07T16:24:27;101954.27;;;18.83;73.62
58967;BME280;44744;51.894;5.080;2023-05-07T16:25:28;101952.88;;;18.83;73.57
58967;BME280;44744;51.894;5.080;2023-05-07T16:26:28;101953.10;;;18.82;73.25
58967;BME280;44744;51.894;5.080;2023-05-07T16:27:29;101956.07;;;18.81;73.24
58967;BME280;44744;51.894;5.080;2023-05-07T16:28:29;101954.90;;;18.79;73.13
58967;BME280;44744;51.894;5.080;2023-05-07T16:29:29;101953.90;;;18.78;72.94
58967;BME280;44744;51.894;5.080;2023-05-07T16:30:30;101953.16;;;18.79;72.68
58967;BME280;44744;51.894;5.080;2023-05-07T16:31:30;101953.21;;;18.81;72.72
58967;BME280;44744;51.894;5.080;2023-05-07T16:32:31;101955.02;;;18.83;72.59
58967;BME280;44744;51.894;5.080;2023-05-07T16:33:32;101953.83;;;18.84;72.29
58967;BME280;44744;51.894;5.080;2023-05-07T16:34:33;101955.47;;;18.86;72.23
58967;BME280;44744;51.894;5.080;2023-05-07T16:35:33;101951.90;;;18.86;71.85
58967;BME280;44744;51.894;5.080;2023-05-07T16:36:34;101957.61;;;18.86;71.92
58967;BME280;44744;51.894;5.080;2023-05-07T16:37:34;101954.02;;;18.87;71.97
58967;BME280;44744;51.894;5.080;2023-05-07T16:38:34;101956.58;;;18.89;71.49
58967;BME280;44744;51.894;5.080;2023-05-07T16:39:34;101957.69;;;18.88;71.33
58967;BME280;44744;51.894;5.080;2023-05-07T16:40:37;101959.13;;;18.85;71.40
58967;BME280;44744;51.894;5.080;2023-05-07T16:41:38;101958.64;;;18.85;71.48
58967;BME280;44744;51.894;5.080;2023-05-07T16:42:38;101961.90;;;18.87;71.22
58967;BME280;44744;51.894;5.080;2023-05-07T16:43:39;101964.40;;;18.84;71.27
58967;BME280;44744;51.894;5.080;2023-05-07T16:44:39;101964.06;;;18.84;71.32
58967;BME280;44744;51.894;5.080;2023-05-07T16:45:39;101965.99;;;18.85;71.60